SWR8T LSZH-KORD
Flight info
| Callsign | SWR8T |
|---|---|
| Flight time | N/A |
| Altitude | 34000 |
| Route | VEBIT1Y VEBIT T10 TORPA DCT REKLA DCT RLP DCT ROTSI DCT KOTUN DCT AMAXA DCT VESAN DCT RATUK DCT SOVAT L613 SANDY DCT OKSAW DCT TEWXI DCT VATRY/N0468F360 DCT TORLU DCT DOGAL/M082F370 NATA ALLRY/N0464F380 N484E ANATI DCT ROSVO Q802 MENKO Q824 FNT WYNDE3 |
| Aircraft | A339/H-SADE1E2E3GHIJ3J5M1P2RWXY/LB2D1 |
Departure
| Time | 2026-05-01 14:59 |
|---|---|
| Airport | Zürich Airport (LSZH) |
Arrival
| Time | N/A |
|---|---|
| Airport | Chicago O'Hare International Airport (KORD) |
| Time | Latitude | Longitude | Altitude | Speed | Heading |
|---|---|---|---|---|---|
| 2026-05-01 14:54 | 47.45605 | 8.55931 | 1410 ft | 1 kts | 86° |
| 2026-05-01 14:54 | 47.45607 | 8.55954 | 1411 ft | 2 kts | 86° |
| 2026-05-01 14:55 | 47.45609 | 8.55990 | 1412 ft | 4 kts | 85° |
| 2026-05-01 14:55 | 47.45612 | 8.56037 | 1413 ft | 5 kts | 85° |
| 2026-05-01 14:55 | 47.45615 | 8.56096 | 1414 ft | 6 kts | 86° |
| 2026-05-01 14:55 | 47.45616 | 8.56167 | 1415 ft | 7 kts | 90° |
| 2026-05-01 14:56 | 47.45614 | 8.56247 | 1417 ft | 8 kts | 94° |
| 2026-05-01 14:56 | 47.45609 | 8.56335 | 1418 ft | 9 kts | 95° |
| 2026-05-01 14:56 | 47.45600 | 8.56431 | 1420 ft | 9 kts | 98° |
| 2026-05-01 14:56 | 47.45592 | 8.56532 | 1422 ft | 10 kts | 97° |
| 2026-05-01 14:57 | 47.45584 | 8.56640 | 1423 ft | 11 kts | 96° |
| 2026-05-01 14:57 | 47.45570 | 8.56888 | 1427 ft | 12 kts | 95° |
| 2026-05-01 14:57 | 47.45591 | 8.56988 | 1428 ft | 8 kts | 23° |
| 2026-05-01 14:58 | 47.45645 | 8.56971 | 1426 ft | 8 kts | 306° |
| 2026-05-01 14:58 | 47.45670 | 8.56879 | 1424 ft | 11 kts | 277° |
| 2026-05-01 14:58 | 47.45679 | 8.56738 | 1421 ft | 25 kts | 272° |
| 2026-05-01 14:58 | 47.45725 | 8.56124 | 1412 ft | 93 kts | 277° |
| 2026-05-01 14:59 | 47.45811 | 8.54868 | 1392 ft | 150 kts | 278° |
| 2026-05-01 14:59 | 47.45980 | 8.53198 | 1637 ft | 172 kts | 280° |
| 2026-05-01 14:59 | 47.46151 | 8.51483 | 2215 ft | 169 kts | 277° |
| 2026-05-01 14:59 | 47.46249 | 8.49715 | 2571 ft | 175 kts | 277° |
| 2026-05-01 15:00 | 47.45620 | 8.46300 | 3282 ft | 187 kts | 221° |
| 2026-05-01 15:00 | 47.44543 | 8.45112 | 3561 ft | 198 kts | 216° |
| 2026-05-01 15:00 | 47.43466 | 8.43720 | 3825 ft | 212 kts | 230° |
| 2026-05-01 15:01 | 47.42507 | 8.41984 | 4107 ft | 227 kts | 233° |
| 2026-05-01 15:01 | 47.41528 | 8.40024 | 4401 ft | 243 kts | 235° |
| 2026-05-01 15:01 | 47.40517 | 8.37920 | 4698 ft | 260 kts | 235° |
| 2026-05-01 15:01 | 47.39460 | 8.35688 | 5023 ft | 275 kts | 237° |
| 2026-05-01 15:02 | 47.38457 | 8.33247 | 5578 ft | 280 kts | 241° |
| 2026-05-01 15:02 | 47.37848 | 8.31561 | 6007 ft | 280 kts | 242° |
| 2026-05-01 15:02 | 47.36656 | 8.28193 | 6819 ft | 282 kts | 242° |
| 2026-05-01 15:02 | 47.35748 | 8.25623 | 7438 ft | 283 kts | 242° |
| 2026-05-01 15:03 | 47.34830 | 8.23031 | 8056 ft | 284 kts | 241° |
| 2026-05-01 15:03 | 47.33924 | 8.20481 | 8653 ft | 285 kts | 241° |
| 2026-05-01 15:03 | 47.33011 | 8.17913 | 9266 ft | 286 kts | 240° |
| 2026-05-01 15:03 | 47.32084 | 8.15310 | 9868 ft | 287 kts | 240° |
| 2026-05-01 15:04 | 47.31155 | 8.12707 | 10443 ft | 289 kts | 240° |
| 2026-05-01 15:04 | 47.30206 | 8.10046 | 10770 ft | 301 kts | 240° |
| 2026-05-01 15:04 | 47.29218 | 8.07273 | 11010 ft | 315 kts | 240° |
| 2026-05-01 15:04 | 47.28174 | 8.04346 | 11257 ft | 329 kts | 241° |
| 2026-05-01 15:05 | 47.27315 | 8.01151 | 11566 ft | 342 kts | 256° |